sensor_id;sensor_type;location;lat;lon;timestamp;temperature;humidity
15556;DHT22;7879;48.660;9.116;2023-08-30T00:01:37;12.90;99.90
15556;DHT22;7879;48.660;9.116;2023-08-30T00:04:04;12.90;99.90
15556;DHT22;7879;48.660;9.116;2023-08-30T00:06:31;12.90;99.90
15556;DHT22;7879;48.660;9.116;2023-08-30T00:08:58;12.90;99.90
15556;DHT22;7879;48.660;9.116;2023-08-30T00:11:25;12.90;99.90
15556;DHT22;7879;48.660;9.116;2023-08-30T00:13:52;12.90;99.90
15556;DHT22;7879;48.660;9.116;2023-08-30T00:16:19;12.90;99.90
15556;DHT22;7879;48.660;9.116;2023-08-30T00:18:46;12.90;99.90
15556;DHT22;7879;48.660;9.116;2023-08-30T00:21:13;12.90;99.90
15556;DHT22;7879;48.660;9.116;2023-08-30T00:23:40;12.90;99.90
15556;DHT22;7879;48.660;9.116;2023-08-30T00:26:07;12.90;99.90
15556;DHT22;7879;48.660;9.116;2023-08-30T00:28:34;12.90;99.90
15556;DHT22;7879;48.660;9.116;2023-08-30T00:31:02;12.80;99.90
15556;DHT22;7879;48.660;9.116;2023-08-30T00:33:30;12.80;99.90
15556;DHT22;7879;48.660;9.116;2023-08-30T00:35:58;12.80;99.90
15556;DHT22;7879;48.660;9.116;2023-08-30T00:38:29;12.70;99.90
15556;DHT22;7879;48.660;9.116;2023-08-30T00:40:56;12.70;99.90
15556;DHT22;7879;48.660;9.116;2023-08-30T00:43:23;12.70;99.90
15556;DHT22;7879;48.660;9.116;2023-08-30T00:45:50;12.80;99.90
15556;DHT22;7879;48.660;9.116;2023-08-30T00:48:22;12.80;99.90
15556;DHT22;7879;48.660;9.116;2023-08-30T00:50:49;12.80;99.90
15556;DHT22;7879;48.660;9.116;2023-08-30T00:53:16;12.80;99.90
15556;DHT22;7879;48.660;9.116;2023-08-30T00:55:43;12.70;99.90
15556;DHT22;7879;48.660;9.116;2023-08-30T00:58:10;12.70;99.90
15556;DHT22;7879;48.660;9.116;2023-08-30T01:00:38;12.70;99.90
15556;DHT22;7879;48.660;9.116;2023-08-30T01:03:06;12.70;99.90
15556;DHT22;7879;48.660;9.116;2023-08-30T01:05:36;12.70;99.90
15556;DHT22;7879;48.660;9.116;2023-08-30T01:08:03;12.70;99.90
15556;DHT22;7879;48.660;9.116;2023-08-30T01:10:51;12.60;99.90
15556;DHT22;7879;48.660;9.116;2023-08-30T01:13:20;12.60;99.90
15556;DHT22;7879;48.660;9.116;2023-08-30T01:15:51;12.60;99.90
15556;DHT22;7879;48.660;9.116;2023-08-30T01:18:22;12.60;99.90
15556;DHT22;7879;48.660;9.116;2023-08-30T01:20:52;12.60;99.90
15556;DHT22;7879;48.660;9.116;2023-08-30T01:26:09;12.60;99.90
15556;DHT22;7879;48.660;9.116;2023-08-30T01:28:38;12.50;99.90
15556;DHT22;7879;48.660;9.116;2023-08-30T01:31:08;12.50;99.90
15556;DHT22;7879;48.660;9.116;2023-08-30T01:33:36;12.50;99.90
15556;DHT22;7879;48.660;9.116;2023-08-30T01:36:04;12.50;99.90
15556;DHT22;7879;48.660;9.116;2023-08-30T01:38:33;12.50;99.90
15556;DHT22;7879;48.660;9.116;2023-08-30T01:41:00;12.40;99.90
15556;DHT22;7879;48.660;9.116;2023-08-30T01:43:29;12.40;99.90
15556;DHT22;7879;48.660;9.116;2023-08-30T01:45:58;12.40;99.90
15556;DHT22;7879;48.660;9.116;2023-08-30T01:48:26;12.50;99.90
15556;DHT22;7879;48.660;9.116;2023-08-30T01:50:54;12.50;99.90
15556;DHT22;7879;48.660;9.116;2023-08-30T01:53:25;12.50;99.90
15556;DHT22;7879;48.660;9.116;2023-08-30T01:55:53;12.40;99.90
15556;DHT22;7879;48.660;9.116;2023-08-30T01:58:20;12.40;99.90
15556;DHT22;7879;48.660;9.116;2023-08-30T02:00:47;12.40;99.90
15556;DHT22;7879;48.660;9.116;2023-08-30T02:03:14;12.40;99.90
15556;DHT22;7879;48.660;9.116;2023-08-30T02:06:00;12.40;99.90
15556;DHT22;7879;48.660;9.116;2023-08-30T02:08:49;12.40;99.90
15556;DHT22;7879;48.660;9.116;2023-08-30T02:11:22;12.40;99.90
15556;DHT22;7879;48.660;9.116;2023-08-30T02:13:52;12.40;99.90
15556;DHT22;7879;48.660;9.116;2023-08-30T02:16:21;12.30;99.90
15556;DHT22;7879;48.660;9.116;2023-08-30T02:18:49;12.30;99.90
15556;DHT22;7879;48.660;9.116;2023-08-30T02:21:17;12.30;99.90
15556;DHT22;7879;48.660;9.116;2023-08-30T02:23:43;12.30;99.90
15556;DHT22;7879;48.660;9.116;2023-08-30T02:26:12;12.40;99.90
15556;DHT22;7879;48.660;9.116;2023-08-30T02:28:38;12.30;99.90
15556;DHT22;7879;48.660;9.116;2023-08-30T02:31:06;12.30;99.90
15556;DHT22;7879;48.660;9.116;2023-08-30T02:33:34;12.20;99.90
15556;DHT22;7879;48.660;9.116;2023-08-30T02:36:01;12.20;99.90
15556;DHT22;7879;48.660;9.116;2023-08-30T02:38:28;12.20;99.90
15556;DHT22;7879;48.660;9.116;2023-08-30T02:40:55;12.20;99.90
15556;DHT22;7879;48.660;9.116;2023-08-30T02:43:22;12.20;99.90
15556;DHT22;7879;48.660;9.116;2023-08-30T02:45:52;12.20;99.90
15556;DHT22;7879;48.660;9.116;2023-08-30T02:48:19;12.30;99.90
15556;DHT22;7879;48.660;9.116;2023-08-30T02:50:48;12.30;99.90
15556;DHT22;7879;48.660;9.116;2023-08-30T02:53:16;12.20;99.90
15556;DHT22;7879;48.660;9.116;2023-08-30T02:55:43;12.30;99.90
15556;DHT22;7879;48.660;9.116;2023-08-30T02:58:12;12.20;99.90
15556;DHT22;7879;48.660;9.116;2023-08-30T03:00:39;12.20;99.90
15556;DHT22;7879;48.660;9.116;2023-08-30T03:03:06;12.10;99.90
15556;DHT22;7879;48.660;9.116;2023-08-30T03:05:33;12.10;99.90
15556;DHT22;7879;48.660;9.116;2023-08-30T03:08:00;12.10;99.90
15556;DHT22;7879;48.660;9.116;2023-08-30T03:10:28;12.10;99.90
15556;DHT22;7879;48.660;9.116;2023-08-30T03:12:56;12.10;99.90
15556;DHT22;7879;48.660;9.116;2023-08-30T03:15:23;12.10;99.90
15556;DHT22;7879;48.660;9.116;2023-08-30T03:17:50;12.10;99.90
15556;DHT22;7879;48.660;9.116;2023-08-30T03:20:16;12.10;99.90
15556;DHT22;7879;48.660;9.116;2023-08-30T03:22:43;12.10;99.90
15556;DHT22;7879;48.660;9.116;2023-08-30T03:25:10;12.00;99.90
15556;DHT22;7879;48.660;9.116;2023-08-30T03:27:38;12.00;99.90
15556;DHT22;7879;48.660;9.116;2023-08-30T03:30:05;11.90;99.90
15556;DHT22;7879;48.660;9.116;2023-08-30T03:32:35;11.90;99.90
15556;DHT22;7879;48.660;9.116;2023-08-30T03:35:03;11.90;99.90
15556;DHT22;7879;48.660;9.116;2023-08-30T03:37:31;11.80;99.90
15556;DHT22;7879;48.660;9.116;2023-08-30T03:39:57;11.80;99.90
15556;DHT22;7879;48.660;9.116;2023-08-30T03:42:24;11.80;99.90
15556;DHT22;7879;48.660;9.116;2023-08-30T03:44:53;11.70;99.90
15556;DHT22;7879;48.660;9.116;2023-08-30T03:47:23;11.80;99.90
15556;DHT22;7879;48.660;9.116;2023-08-30T03:49:50;11.70;99.90
15556;DHT22;7879;48.660;9.116;2023-08-30T03:52:17;11.70;99.90
15556;DHT22;7879;48.660;9.116;2023-08-30T03:54:43;11.70;99.90
15556;DHT22;7879;48.660;9.116;2023-08-30T03:57:10;11.80;99.90
15556;DHT22;7879;48.660;9.116;2023-08-30T03:59:37;11.80;99.90
15556;DHT22;7879;48.660;9.116;2023-08-30T04:02:04;11.80;99.90
15556;DHT22;7879;48.660;9.116;2023-08-30T04:04:31;11.80;99.90
15556;DHT22;7879;48.660;9.116;2023-08-30T04:06:58;11.80;99.90
15556;DHT22;7879;48.660;9.116;2023-08-30T04:09:25;11.80;99.90
15556;DHT22;7879;48.660;9.116;2023-08-30T04:11:52;11.80;99.90
15556;DHT22;7879;48.660;9.116;2023-08-30T04:14:19;11.70;99.90
15556;DHT22;7879;48.660;9.116;2023-08-30T04:16:48;11.70;99.90
15556;DHT22;7879;48.660;9.116;2023-08-30T04:19:15;11.70;99.90
15556;DHT22;7879;48.660;9.116;2023-08-30T04:21:42;11.70;99.90
15556;DHT22;7879;48.660;9.116;2023-08-30T04:24:08;11.70;99.90
15556;DHT22;7879;48.660;9.116;2023-08-30T04:26:35;11.70;99.90
15556;DHT22;7879;48.660;9.116;2023-08-30T04:29:03;11.70;99.90
15556;DHT22;7879;48.660;9.116;2023-08-30T04:31:30;11.60;99.90
15556;DHT22;7879;48.660;9.116;2023-08-30T04:33:57;11.60;99.90
15556;DHT22;7879;48.660;9.116;2023-08-30T04:36:24;11.60;99.90
15556;DHT22;7879;48.660;9.116;2023-08-30T04:38:51;11.60;99.90
15556;DHT22;7879;48.660;9.116;2023-08-30T04:41:28;11.60;99.90
15556;DHT22;7879;48.660;9.116;2023-08-30T04:43:55;11.60;99.90
15556;DHT22;7879;48.660;9.116;2023-08-30T04:46:22;11.60;99.90
15556;DHT22;7879;48.660;9.116;2023-08-30T04:48:49;11.60;99.90
15556;DHT22;7879;48.660;9.116;2023-08-30T04:51:17;11.60;99.90
15556;DHT22;7879;48.660;9.116;2023-08-30T04:53:44;11.60;99.90
15556;DHT22;7879;48.660;9.116;2023-08-30T04:56:14;11.70;99.90
15556;DHT22;7879;48.660;9.116;2023-08-30T04:58:41;11.60;99.90
15556;DHT22;7879;48.660;9.116;2023-08-30T05:01:11;11.60;99.90
15556;DHT22;7879;48.660;9.116;2023-08-30T05:03:40;11.70;99.90
15556;DHT22;7879;48.660;9.116;2023-08-30T05:06:08;11.70;99.90
15556;DHT22;7879;48.660;9.116;2023-08-30T05:08:35;11.70;99.90
15556;DHT22;7879;48.660;9.116;2023-08-30T05:11:03;11.70;99.90
15556;DHT22;7879;48.660;9.116;2023-08-30T05:13:32;11.70;99.90
15556;DHT22;7879;48.660;9.116;2023-08-30T05:16:00;11.60;99.90
15556;DHT22;7879;48.660;9.116;2023-08-30T05:18:27;11.50;99.90
15556;DHT22;7879;48.660;9.116;2023-08-30T05:20:55;11.70;99.90
15556;DHT22;7879;48.660;9.116;2023-08-30T05:23:22;11.70;99.90
15556;DHT22;7879;48.660;9.116;2023-08-30T05:25:49;11.70;99.90
15556;DHT22;7879;48.660;9.116;2023-08-30T05:28:16;11.70;99.90
15556;DHT22;7879;48.660;9.116;2023-08-30T05:30:43;11.70;99.90
15556;DHT22;7879;48.660;9.116;2023-08-30T05:33:11;11.80;99.90
15556;DHT22;7879;48.660;9.116;2023-08-30T05:35:38;11.70;99.90
15556;DHT22;7879;48.660;9.116;2023-08-30T05:38:04;11.70;99.90
15556;DHT22;7879;48.660;9.116;2023-08-30T05:40:32;11.80;99.90
15556;DHT22;7879;48.660;9.116;2023-08-30T05:43:00;11.80;99.90
15556;DHT22;7879;48.660;9.116;2023-08-30T05:45:27;11.80;99.90
15556;DHT22;7879;48.660;9.116;2023-08-30T05:47:54;11.80;99.90
15556;DHT22;7879;48.660;9.116;2023-08-30T05:50:21;11.90;99.90
15556;DHT22;7879;48.660;9.116;2023-08-30T05:52:48;11.80;99.90
15556;DHT22;7879;48.660;9.116;2023-08-30T05:55:15;11.80;99.90
15556;DHT22;7879;48.660;9.116;2023-08-30T05:57:41;11.80;99.90
15556;DHT22;7879;48.660;9.116;2023-08-30T06:00:09;11.80;99.90
15556;DHT22;7879;48.660;9.116;2023-08-30T06:02:36;11.90;99.90
15556;DHT22;7879;48.660;9.116;2023-08-30T06:05:03;11.90;99.90
15556;DHT22;7879;48.660;9.116;2023-08-30T06:07:30;11.90;99.90
15556;DHT22;7879;48.660;9.116;2023-08-30T06:09:57;11.90;99.90
15556;DHT22;7879;48.660;9.116;2023-08-30T06:12:25;12.00;99.90
15556;DHT22;7879;48.660;9.116;2023-08-30T06:14:52;12.00;99.90
15556;DHT22;7879;48.660;9.116;2023-08-30T06:17:20;12.00;99.90
15556;DHT22;7879;48.660;9.116;2023-08-30T06:19:47;12.00;99.90
15556;DHT22;7879;48.660;9.116;2023-08-30T06:22:14;12.10;99.90
15556;DHT22;7879;48.660;9.116;2023-08-30T06:24:41;12.00;99.90
15556;DHT22;7879;48.660;9.116;2023-08-30T06:27:08;12.00;99.90
15556;DHT22;7879;48.660;9.116;2023-08-30T06:29:35;12.10;99.90
15556;DHT22;7879;48.660;9.116;2023-08-30T06:32:02;12.10;99.90
15556;DHT22;7879;48.660;9.116;2023-08-30T06:34:29;12.10;99.90
15556;DHT22;7879;48.660;9.116;2023-08-30T06:36:56;12.10;99.90
15556;DHT22;7879;48.660;9.116;2023-08-30T06:39:25;12.20;99.90
15556;DHT22;7879;48.660;9.116;2023-08-30T06:41:53;12.20;99.90
15556;DHT22;7879;48.660;9.116;2023-08-30T06:44:20;12.20;99.90
15556;DHT22;7879;48.660;9.116;2023-08-30T06:46:48;12.20;99.90
15556;DHT22;7879;48.660;9.116;2023-08-30T06:49:17;12.20;99.90
15556;DHT22;7879;48.660;9.116;2023-08-30T06:51:44;12.20;99.90
15556;DHT22;7879;48.660;9.116;2023-08-30T06:54:10;12.20;99.90
15556;DHT22;7879;48.660;9.116;2023-08-30T06:56:37;12.20;99.90
15556;DHT22;7879;48.660;9.116;2023-08-30T06:59:04;12.30;99.90
15556;DHT22;7879;48.660;9.116;2023-08-30T07:01:31;12.20;99.90
15556;DHT22;7879;48.660;9.116;2023-08-30T07:04:02;12.30;99.90
15556;DHT22;7879;48.660;9.116;2023-08-30T07:06:28;12.30;99.90
15556;DHT22;7879;48.660;9.116;2023-08-30T07:08:59;12.20;99.90
15556;DHT22;7879;48.660;9.116;2023-08-30T07:11:27;12.30;99.90
15556;DHT22;7879;48.660;9.116;2023-08-30T07:14:00;12.30;99.90
15556;DHT22;7879;48.660;9.116;2023-08-30T07:16:28;12.30;99.90
15556;DHT22;7879;48.660;9.116;2023-08-30T07:18:55;12.30;99.90
15556;DHT22;7879;48.660;9.116;2023-08-30T07:21:23;12.40;99.90
15556;DHT22;7879;48.660;9.116;2023-08-30T07:23:53;12.40;99.90
15556;DHT22;7879;48.660;9.116;2023-08-30T07:26:19;12.50;99.90
15556;DHT22;7879;48.660;9.116;2023-08-30T07:28:48;12.50;99.90
15556;DHT22;7879;48.660;9.116;2023-08-30T07:31:15;12.50;99.90
15556;DHT22;7879;48.660;9.116;2023-08-30T07:33:45;12.50;99.90
15556;DHT22;7879;48.660;9.116;2023-08-30T07:36:11;12.50;99.90
15556;DHT22;7879;48.660;9.116;2023-08-30T07:38:38;12.60;99.90
15556;DHT22;7879;48.660;9.116;2023-08-30T07:41:05;12.50;99.90
15556;DHT22;7879;48.660;9.116;2023-08-30T07:43:32;12.60;99.90
15556;DHT22;7879;48.660;9.116;2023-08-30T07:46:01;12.60;99.90
15556;DHT22;7879;48.660;9.116;2023-08-30T07:48:28;12.70;99.90
15556;DHT22;7879;48.660;9.116;2023-08-30T07:50:56;12.60;99.90
15556;DHT22;7879;48.660;9.116;2023-08-30T07:53:23;12.70;99.90
15556;DHT22;7879;48.660;9.116;2023-08-30T07:55:50;12.70;99.90
15556;DHT22;7879;48.660;9.116;2023-08-30T07:58:17;12.80;99.90
15556;DHT22;7879;48.660;9.116;2023-08-30T08:00:44;12.80;99.90
15556;DHT22;7879;48.660;9.116;2023-08-30T08:03:12;12.70;99.90
15556;DHT22;7879;48.660;9.116;2023-08-30T08:05:41;12.80;99.90
15556;DHT22;7879;48.660;9.116;2023-08-30T08:08:08;12.80;99.90
15556;DHT22;7879;48.660;9.116;2023-08-30T08:10:35;12.80;99.90
15556;DHT22;7879;48.660;9.116;2023-08-30T08:13:02;12.90;99.90
15556;DHT22;7879;48.660;9.116;2023-08-30T08:15:30;12.90;99.90
15556;DHT22;7879;48.660;9.116;2023-08-30T08:17:57;12.80;99.90
15556;DHT22;7879;48.660;9.116;2023-08-30T08:20:25;12.90;99.90
15556;DHT22;7879;48.660;9.116;2023-08-30T08:22:52;13.00;99.90
15556;DHT22;7879;48.660;9.116;2023-08-30T08:25:19;13.00;99.90
15556;DHT22;7879;48.660;9.116;2023-08-30T08:27:48;13.00;99.90
15556;DHT22;7879;48.660;9.116;2023-08-30T08:30:15;13.00;99.90
15556;DHT22;7879;48.660;9.116;2023-08-30T08:32:42;13.10;99.90
15556;DHT22;7879;48.660;9.116;2023-08-30T08:35:09;13.10;99.90
15556;DHT22;7879;48.660;9.116;2023-08-30T08:37:36;13.20;99.90
15556;DHT22;7879;48.660;9.116;2023-08-30T08:40:04;13.20;99.90
15556;DHT22;7879;48.660;9.116;2023-08-30T08:42:36;13.30;99.90
15556;DHT22;7879;48.660;9.116;2023-08-30T08:45:04;13.40;99.90
15556;DHT22;7879;48.660;9.116;2023-08-30T08:47:31;13.40;99.90
15556;DHT22;7879;48.660;9.116;2023-08-30T08:49:59;13.50;99.90
15556;DHT22;7879;48.660;9.116;2023-08-30T08:52:27;13.50;99.90
15556;DHT22;7879;48.660;9.116;2023-08-30T08:55:02;13.60;99.90
15556;DHT22;7879;48.660;9.116;2023-08-30T08:57:29;13.60;99.90
15556;DHT22;7879;48.660;9.116;2023-08-30T08:59:59;13.80;99.90
15556;DHT22;7879;48.660;9.116;2023-08-30T09:02:27;13.80;99.90
15556;DHT22;7879;48.660;9.116;2023-08-30T09:04:58;13.90;99.90
15556;DHT22;7879;48.660;9.116;2023-08-30T09:07:27;13.90;99.90
15556;DHT22;7879;48.660;9.116;2023-08-30T09:09:55;14.00;99.90
15556;DHT22;7879;48.660;9.116;2023-08-30T09:12:22;14.10;99.90
15556;DHT22;7879;48.660;9.116;2023-08-30T09:14:56;14.20;99.90
15556;DHT22;7879;48.660;9.116;2023-08-30T09:17:34;14.30;99.90
15556;DHT22;7879;48.660;9.116;2023-08-30T09:20:09;14.40;99.90
15556;DHT22;7879;48.660;9.116;2023-08-30T09:22:41;14.40;99.90
15556;DHT22;7879;48.660;9.116;2023-08-30T09:25:09;14.50;99.90
15556;DHT22;7879;48.660;9.116;2023-08-30T09:27:37;14.60;99.90
15556;DHT22;7879;48.660;9.116;2023-08-30T09:30:09;14.80;99.90
15556;DHT22;7879;48.660;9.116;2023-08-30T09:32:41;14.80;99.90
15556;DHT22;7879;48.660;9.116;2023-08-30T09:35:11;14.80;99.90
15556;DHT22;7879;48.660;9.116;2023-08-30T09:37:39;14.90;99.90
15556;DHT22;7879;48.660;9.116;2023-08-30T09:40:06;15.10;99.90
15556;DHT22;7879;48.660;9.116;2023-08-30T09:42:33;15.40;99.90
15556;DHT22;7879;48.660;9.116;2023-08-30T09:45:01;15.40;99.90
15556;DHT22;7879;48.660;9.116;2023-08-30T09:47:29;15.40;99.90
15556;DHT22;7879;48.660;9.116;2023-08-30T09:49:58;15.40;99.90
15556;DHT22;7879;48.660;9.116;2023-08-30T09:52:28;15.60;99.90
15556;DHT22;7879;48.660;9.116;2023-08-30T09:54:57;15.80;99.90
15556;DHT22;7879;48.660;9.116;2023-08-30T09:57:26;15.90;99.90
15556;DHT22;7879;48.660;9.116;2023-08-30T09:59:54;16.00;99.90
15556;DHT22;7879;48.660;9.116;2023-08-30T10:02:22;16.20;99.90
15556;DHT22;7879;48.660;9.116;2023-08-30T10:04:50;16.20;99.90
15556;DHT22;7879;48.660;9.116;2023-08-30T10:07:17;16.10;99.90
15556;DHT22;7879;48.660;9.116;2023-08-30T10:09:45;16.10;99.90
15556;DHT22;7879;48.660;9.116;2023-08-30T10:12:34;16.10;99.90
15556;DHT22;7879;48.660;9.116;2023-08-30T10:15:02;16.20;99.90
15556;DHT22;7879;48.660;9.116;2023-08-30T10:17:32;16.30;99.90
15556;DHT22;7879;48.660;9.116;2023-08-30T10:20:04;16.40;99.90
15556;DHT22;7879;48.660;9.116;2023-08-30T10:22:38;16.60;99.90
15556;DHT22;7879;48.660;9.116;2023-08-30T10:25:12;16.90;99.90
15556;DHT22;7879;48.660;9.116;2023-08-30T10:27:46;17.00;99.90
15556;DHT22;7879;48.660;9.116;2023-08-30T10:30:13;16.90;99.90
15556;DHT22;7879;48.660;9.116;2023-08-30T10:32:42;17.00;99.90
15556;DHT22;7879;48.660;9.116;2023-08-30T10:35:14;17.20;99.90
15556;DHT22;7879;48.660;9.116;2023-08-30T10:37:42;17.30;99.90
15556;DHT22;7879;48.660;9.116;2023-08-30T10:40:09;17.40;99.90
15556;DHT22;7879;48.660;9.116;2023-08-30T10:42:38;17.50;99.90
15556;DHT22;7879;48.660;9.116;2023-08-30T10:45:08;17.70;99.90
15556;DHT22;7879;48.660;9.116;2023-08-30T10:47:40;17.70;99.90
15556;DHT22;7879;48.660;9.116;2023-08-30T10:50:10;17.70;99.90
15556;DHT22;7879;48.660;9.116;2023-08-30T10:52:38;17.70;99.90
15556;DHT22;7879;48.660;9.116;2023-08-30T10:55:11;17.80;99.90
15556;DHT22;7879;48.660;9.116;2023-08-30T10:57:44;17.90;99.90
15556;DHT22;7879;48.660;9.116;2023-08-30T11:00:17;18.00;99.90
15556;DHT22;7879;48.660;9.116;2023-08-30T11:02:47;18.00;99.90
15556;DHT22;7879;48.660;9.116;2023-08-30T11:05:20;18.10;99.90
15556;DHT22;7879;48.660;9.116;2023-08-30T11:07:47;18.40;99.90
15556;DHT22;7879;48.660;9.116;2023-08-30T11:10:17;18.60;99.90
15556;DHT22;7879;48.660;9.116;2023-08-30T11:12:45;18.70;99.90
15556;DHT22;7879;48.660;9.116;2023-08-30T11:15:13;18.70;99.90
15556;DHT22;7879;48.660;9.116;2023-08-30T11:17:44;18.60;99.90
15556;DHT22;7879;48.660;9.116;2023-08-30T11:20:12;18.60;99.90
15556;DHT22;7879;48.660;9.116;2023-08-30T11:22:43;18.60;99.90
15556;DHT22;7879;48.660;9.116;2023-08-30T11:25:12;18.60;99.90
15556;DHT22;7879;48.660;9.116;2023-08-30T11:27:40;18.80;99.90
15556;DHT22;7879;48.660;9.116;2023-08-30T11:30:08;18.60;99.90
15556;DHT22;7879;48.660;9.116;2023-08-30T11:32:44;18.50;99.90
15556;DHT22;7879;48.660;9.116;2023-08-30T11:35:11;18.50;99.90
15556;DHT22;7879;48.660;9.116;2023-08-30T11:37:40;18.50;99.90
15556;DHT22;7879;48.660;9.116;2023-08-30T11:40:08;18.50;99.90
15556;DHT22;7879;48.660;9.116;2023-08-30T11:42:37;18.50;99.90
15556;DHT22;7879;48.660;9.116;2023-08-30T11:45:06;18.50;99.90
15556;DHT22;7879;48.660;9.116;2023-08-30T11:47:34;18.50;99.90
15556;DHT22;7879;48.660;9.116;2023-08-30T11:50:01;18.50;99.90
15556;DHT22;7879;48.660;9.116;2023-08-30T11:52:28;18.40;99.90
15556;DHT22;7879;48.660;9.116;2023-08-30T11:54:56;18.40;99.90
15556;DHT22;7879;48.660;9.116;2023-08-30T11:57:23;18.30;99.90
15556;DHT22;7879;48.660;9.116;2023-08-30T11:59:52;17.90;99.90
15556;DHT22;7879;48.660;9.116;2023-08-30T12:02:19;17.50;99.90
15556;DHT22;7879;48.660;9.116;2023-08-30T12:04:48;17.10;99.90
15556;DHT22;7879;48.660;9.116;2023-08-30T12:07:22;16.90;99.90
15556;DHT22;7879;48.660;9.116;2023-08-30T12:09:50;16.70;99.90
15556;DHT22;7879;48.660;9.116;2023-08-30T12:12:17;16.40;99.90
15556;DHT22;7879;48.660;9.116;2023-08-30T12:14:44;16.20;99.90
15556;DHT22;7879;48.660;9.116;2023-08-30T12:17:11;16.10;99.90
15556;DHT22;7879;48.660;9.116;2023-08-30T12:19:39;16.00;99.90
15556;DHT22;7879;48.660;9.116;2023-08-30T12:22:09;16.00;99.90
15556;DHT22;7879;48.660;9.116;2023-08-30T12:24:45;16.20;99.90
15556;DHT22;7879;48.660;9.116;2023-08-30T12:27:13;16.30;99.90
15556;DHT22;7879;48.660;9.116;2023-08-30T12:29:40;16.20;99.90
15556;DHT22;7879;48.660;9.116;2023-08-30T12:32:09;16.20;99.90
15556;DHT22;7879;48.660;9.116;2023-08-30T12:34:36;16.30;99.90
15556;DHT22;7879;48.660;9.116;2023-08-30T12:37:03;16.40;99.90
15556;DHT22;7879;48.660;9.116;2023-08-30T12:39:31;16.50;99.90
15556;DHT22;7879;48.660;9.116;2023-08-30T12:41:58;16.50;99.90
15556;DHT22;7879;48.660;9.116;2023-08-30T12:44:26;16.60;99.90
15556;DHT22;7879;48.660;9.116;2023-08-30T12:46:53;16.60;99.90
15556;DHT22;7879;48.660;9.116;2023-08-30T12:49:20;16.70;99.90
15556;DHT22;7879;48.660;9.116;2023-08-30T12:51:47;16.70;99.90
15556;DHT22;7879;48.660;9.116;2023-08-30T12:54:15;16.60;99.90
15556;DHT22;7879;48.660;9.116;2023-08-30T12:56:41;16.60;99.90
15556;DHT22;7879;48.660;9.116;2023-08-30T12:59:08;16.60;99.90
15556;DHT22;7879;48.660;9.116;2023-08-30T13:01:36;16.60;99.90
15556;DHT22;7879;48.660;9.116;2023-08-30T13:04:06;16.60;99.90
15556;DHT22;7879;48.660;9.116;2023-08-30T13:06:34;16.60;99.90
15556;DHT22;7879;48.660;9.116;2023-08-30T13:09:01;16.60;99.90
15556;DHT22;7879;48.660;9.116;2023-08-30T13:11:27;16.60;99.90
15556;DHT22;7879;48.660;9.116;2023-08-30T13:13:54;16.60;99.90
15556;DHT22;7879;48.660;9.116;2023-08-30T13:16:24;16.60;99.90
15556;DHT22;7879;48.660;9.116;2023-08-30T13:18:51;16.60;99.90
15556;DHT22;7879;48.660;9.116;2023-08-30T13:21:18;16.70;99.90
15556;DHT22;7879;48.660;9.116;2023-08-30T13:23:56;16.70;99.90
15556;DHT22;7879;48.660;9.116;2023-08-30T13:26:23;16.70;99.90
15556;DHT22;7879;48.660;9.116;2023-08-30T13:28:50;16.80;99.90
15556;DHT22;7879;48.660;9.116;2023-08-30T13:31:17;16.80;99.90
15556;DHT22;7879;48.660;9.116;2023-08-30T13:33:44;16.80;99.90
15556;DHT22;7879;48.660;9.116;2023-08-30T13:36:11;16.80;99.90
15556;DHT22;7879;48.660;9.116;2023-08-30T13:38:37;16.80;99.90
15556;DHT22;7879;48.660;9.116;2023-08-30T13:41:05;16.90;99.90
15556;DHT22;7879;48.660;9.116;2023-08-30T13:43:32;17.00;99.90
15556;DHT22;7879;48.660;9.116;2023-08-30T13:45:59;17.10;99.90
15556;DHT22;7879;48.660;9.116;2023-08-30T13:48:26;17.10;99.90
15556;DHT22;7879;48.660;9.116;2023-08-30T13:50:54;17.20;99.90
15556;DHT22;7879;48.660;9.116;2023-08-30T13:53:20;17.30;99.90
15556;DHT22;7879;48.660;9.116;2023-08-30T13:55:47;17.30;99.90
15556;DHT22;7879;48.660;9.116;2023-08-30T13:58:17;17.40;99.90
15556;DHT22;7879;48.660;9.116;2023-08-30T14:00:44;17.40;99.90
15556;DHT22;7879;48.660;9.116;2023-08-30T14:03:11;17.50;99.90
15556;DHT22;7879;48.660;9.116;2023-08-30T14:05:39;17.60;99.90
15556;DHT22;7879;48.660;9.116;2023-08-30T14:08:09;17.60;99.90
15556;DHT22;7879;48.660;9.116;2023-08-30T14:10:36;17.70;99.90
15556;DHT22;7879;48.660;9.116;2023-08-30T14:13:04;17.80;99.90
15556;DHT22;7879;48.660;9.116;2023-08-30T14:15:31;17.80;99.90
15556;DHT22;7879;48.660;9.116;2023-08-30T14:17:59;17.90;99.90
15556;DHT22;7879;48.660;9.116;2023-08-30T14:20:27;17.90;99.90
15556;DHT22;7879;48.660;9.116;2023-08-30T14:22:54;17.90;99.90
15556;DHT22;7879;48.660;9.116;2023-08-30T14:25:21;17.90;99.90
15556;DHT22;7879;48.660;9.116;2023-08-30T14:27:48;17.90;99.90
15556;DHT22;7879;48.660;9.116;2023-08-30T14:30:15;18.00;99.90
15556;DHT22;7879;48.660;9.116;2023-08-30T14:32:42;18.10;99.90
15556;DHT22;7879;48.660;9.116;2023-08-30T14:35:09;18.10;99.90
15556;DHT22;7879;48.660;9.116;2023-08-30T14:37:38;18.20;99.90
15556;DHT22;7879;48.660;9.116;2023-08-30T14:40:06;18.20;99.90
15556;DHT22;7879;48.660;9.116;2023-08-30T14:42:33;18.20;99.90
15556;DHT22;7879;48.660;9.116;2023-08-30T14:45:00;18.20;99.90
15556;DHT22;7879;48.660;9.116;2023-08-30T14:47:30;18.10;99.90
15556;DHT22;7879;48.660;9.116;2023-08-30T14:49:57;18.10;99.90
15556;DHT22;7879;48.660;9.116;2023-08-30T14:52:24;18.10;99.90
15556;DHT22;7879;48.660;9.116;2023-08-30T14:54:51;18.20;99.90
15556;DHT22;7879;48.660;9.116;2023-08-30T14:57:18;18.10;99.90
15556;DHT22;7879;48.660;9.116;2023-08-30T14:59:46;18.10;99.90
15556;DHT22;7879;48.660;9.116;2023-08-30T15:02:14;18.10;99.90
15556;DHT22;7879;48.660;9.116;2023-08-30T15:04:41;18.10;99.90
15556;DHT22;7879;48.660;9.116;2023-08-30T15:07:08;18.10;99.90
15556;DHT22;7879;48.660;9.116;2023-08-30T15:09:35;18.00;99.90
15556;DHT22;7879;48.660;9.116;2023-08-30T15:12:02;18.00;99.90
15556;DHT22;7879;48.660;9.116;2023-08-30T15:14:30;18.00;99.90
15556;DHT22;7879;48.660;9.116;2023-08-30T15:16:57;18.00;99.90
15556;DHT22;7879;48.660;9.116;2023-08-30T15:19:23;18.10;99.90
15556;DHT22;7879;48.660;9.116;2023-08-30T15:21:50;18.20;99.90
15556;DHT22;7879;48.660;9.116;2023-08-30T15:24:17;18.20;99.90
15556;DHT22;7879;48.660;9.116;2023-08-30T15:26:44;18.20;99.90
15556;DHT22;7879;48.660;9.116;2023-08-30T15:29:11;18.20;99.90
15556;DHT22;7879;48.660;9.116;2023-08-30T15:31:38;18.20;99.90
15556;DHT22;7879;48.660;9.116;2023-08-30T15:34:05;18.20;99.90
15556;DHT22;7879;48.660;9.116;2023-08-30T15:36:32;18.30;99.90
15556;DHT22;7879;48.660;9.116;2023-08-30T15:38:59;18.20;99.90
15556;DHT22;7879;48.660;9.116;2023-08-30T15:41:26;18.30;99.90
15556;DHT22;7879;48.660;9.116;2023-08-30T15:43:53;18.30;99.90
15556;DHT22;7879;48.660;9.116;2023-08-30T15:46:20;18.30;99.90
15556;DHT22;7879;48.660;9.116;2023-08-30T15:48:47;18.30;99.90
15556;DHT22;7879;48.660;9.116;2023-08-30T15:51:14;18.20;99.90
15556;DHT22;7879;48.660;9.116;2023-08-30T15:53:50;18.20;99.90